Time;durP1;ratioP1;P1;durP2;ratioP2;P2;SDS_P1;SDS_P2;PMS_P1;PMS_P2;Temp;Humidity;BMP_temperature;BMP_pressure;BME280_temperature;BME280_humidity;BME280_pressure;Samples;Min_cycle;Max_cycle;Signal;HPM_P1;HPM_P2
2023/05/31 08:05:20;;;;;;;7.07;2.77;;;;;;;21.52;41.08;101066.81;4804519;29;20272;-73
2023/05/31 08:46:24;;;;;;;8.98;2.00;;;;;;;22.89;37.23;101046.91;4924288;29;20235;-73
2023/05/31 09:58:32;;;;;;;6.22;1.95;;;;;;;24.85;30.24;100998.56;4741475;30;20232;-74
2023/05/31 14:30:17;;;;;;;5.30;1.75;;;;;;;26.25;23.83;100778.66;6116208;23;21041;-75
2023/05/31 15:00:28;;;;;;;3.97;2.00;;;;;;;25.94;24.81;100760.16;6027784;23;20782;-74
2023/05/31 15:42:24;;;;;;;4.82;1.88;;;;;;;25.74;24.43;100739.66;5908964;24;20232;-74
2023/05/31 18:22:00;;;;;;;7.15;2.05;;;;;;;24.80;31.76;100678.41;6230294;22;20210;-66
2023/05/31 18:24:28;;;;;;;4.47;1.90;;;;;;;24.76;31.91;100671.81;6250513;23;20183;-64
2023/05/31 18:27:15;;;;;;;8.45;2.42;;;;;;;24.74;30.50;100680.16;6247593;23;20180;-64
2023/05/31 18:29:44;;;;;;;4.10;1.90;;;;;;;24.73;30.01;100680.41;6236982;23;20691;-64
2023/05/31 18:32:12;;;;;;;6.90;1.88;;;;;;;24.72;29.87;100676.84;6233981;23;20639;-64
2023/05/31 18:34:40;;;;;;;8.27;2.25;;;;;;;24.72;29.62;100684.16;6235958;23;20207;-64
2023/05/31 18:37:10;;;;;;;5.03;2.00;;;;;;;24.70;29.54;100678.19;6233793;23;20211;-64
2023/05/31 18:39:38;;;;;;;5.05;1.73;;;;;;;24.69;29.95;100677.34;6233455;23;20249;-63
2023/05/31 18:42:07;;;;;;;6.03;2.22;;;;;;;24.69;29.91;100684.66;6232767;23;20253;-64
2023/05/31 18:44:35;;;;;;;8.73;1.92;;;;;;;24.65;30.21;100678.03;6234218;23;20191;-67
2023/05/31 18:47:03;;;;;;;4.28;1.80;;;;;;;24.63;30.62;100683.69;6234836;23;20250;-65
2023/05/31 18:49:31;;;;;;;7.90;2.15;;;;;;;24.61;31.14;100682.28;6235442;23;20234;-65
2023/05/31 18:52:00;;;;;;;6.75;1.98;;;;;;;24.55;30.90;100686.75;6232927;23;20215;-65
2023/05/31 18:54:30;;;;;;;6.30;2.53;;;;;;;24.52;31.07;100681.81;6233480;23;20306;-64
2023/05/31 18:57:00;;;;;;;9.23;2.35;;;;;;;24.49;31.37;100689.59;6231151;23;20425;-64
2023/05/31 18:59:29;;;;;;;5.40;2.50;;;;;;;24.45;30.91;100688.41;6229133;23;20234;-64
2023/05/31 19:01:59;;;;;;;8.15;2.78;;;;;;;24.42;31.53;100686.16;6228982;23;20237;-66
2023/05/31 19:04:27;;;;;;;9.60;3.17;;;;;;;24.35;31.15;100692.53;6230682;23;20650;-67
2023/05/31 19:06:56;;;;;;;8.25;4.30;;;;;;;24.32;31.05;100701.13;6236236;23;20175;-64
2023/05/31 19:09:24;;;;;;;8.45;3.95;;;;;;;24.30;31.09;100708.63;6235651;23;20188;-64
2023/05/31 19:11:53;;;;;;;7.82;3.28;;;;;;;24.26;31.32;100704.75;6235253;23;20183;-64
2023/05/31 19:14:22;;;;;;;8.27;2.50;;;;;;;24.23;32.17;100704.38;6236675;23;20250;-64
2023/05/31 19:16:51;;;;;;;8.55;2.60;;;;;;;24.18;32.25;100707.78;6235775;23;20818;-68
2023/05/31 19:19:19;;;;;;;14.45;3.97;;;;;;;24.15;32.11;100705.50;6239126;23;20186;-65
2023/05/31 19:21:47;;;;;;;8.70;3.25;;;;;;;24.13;32.13;100701.38;6238648;23;20574;-65
2023/05/31 19:24:15;;;;;;;8.15;2.50;;;;;;;24.09;32.46;100711.88;6238291;23;20176;-65
2023/05/31 19:26:43;;;;;;;8.13;2.60;;;;;;;24.04;32.89;100719.84;6235599;23;20623;-65
2023/05/31 19:29:12;;;;;;;6.47;2.53;;;;;;;24.01;33.27;100715.69;6236082;23;20187;-65
2023/05/31 19:31:42;;;;;;;6.00;2.47;;;;;;;23.97;33.09;100717.22;6240454;23;20179;-65
2023/05/31 19:34:10;;;;;;;12.50;2.40;;;;;;;23.92;35.63;100721.69;6235559;23;20184;-69
2023/05/31 19:36:38;;;;;;;6.60;2.22;;;;;;;23.89;37.10;100722.16;6235159;23;20238;-68
2023/05/31 19:39:06;;;;;;;7.03;2.50;;;;;;;23.83;37.25;100725.78;6233508;23;20217;-67
2023/05/31 19:41:34;;;;;;;8.95;2.72;;;;;;;23.77;37.47;100732.91;6235371;23;20187;-67
2023/05/31 19:44:02;;;;;;;9.00;2.83;;;;;;;23.72;37.77;100731.97;6234308;23;20183;-70
2023/05/31 19:46:31;;;;;;;6.93;3.50;;;;;;;23.68;37.20;100731.56;6232978;23;20973;-69
2023/05/31 19:48:59;;;;;;;8.55;2.28;;;;;;;23.64;37.54;100735.81;6233638;23;20233;-67
2023/05/31 19:51:27;;;;;;;8.05;2.50;;;;;;;23.59;37.52;100736.47;6233703;23;20234;-68
2023/05/31 19:53:55;;;;;;;6.20;2.42;;;;;;;23.59;37.61;100738.34;6231838;23;20222;-68
2023/05/31 19:56:23;;;;;;;11.50;2.50;;;;;;;23.55;37.95;100743.41;6235307;23;20203;-68
2023/05/31 19:58:51;;;;;;;6.22;2.50;;;;;;;23.50;38.04;100745.94;6237238;23;20179;-68
2023/05/31 20:01:20;;;;;;;9.63;2.80;;;;;;;23.49;38.25;100744.28;6235407;23;20180;-67
2023/05/31 20:03:50;;;;;;;5.93;2.33;;;;;;;23.46;38.25;100750.16;6233766;23;20183;-70
2023/05/31 20:06:18;;;;;;;11.00;2.47;;;;;;;23.43;38.39;100750.59;6232515;23;20210;-67
2023/05/31 20:08:46;;;;;;;5.88;2.15;;;;;;;23.43;38.24;100756.00;6235251;23;20183;-67
2023/05/31 20:11:15;;;;;;;9.68;2.50;;;;;;;23.43;38.64;100756.00;6235227;23;20616;-67
2023/05/31 20:13:42;;;;;;;7.40;3.05;;;;;;;23.43;38.60;100755.16;6233646;23;20205;-65
2023/05/31 20:16:10;;;;;;;13.13;4.07;;;;;;;23.44;38.38;100760.38;6233630;23;20971;-66
2023/05/31 20:18:38;;;;;;;5.57;2.25;;;;;;;23.52;38.37;100749.28;6233890;23;20282;-65
2023/05/31 20:21:08;;;;;;;6.75;2.72;;;;;;;23.59;38.06;100758.13;6231744;23;20211;-65
2023/05/31 20:23:35;;;;;;;10.13;2.90;;;;;;;23.57;38.15;100757.53;6233191;23;20191;-66
2023/05/31 20:26:03;;;;;;;8.00;3.05;;;;;;;23.51;38.58;100758.44;6232714;23;20280;-65
2023/05/31 20:28:31;;;;;;;12.15;2.88;;;;;;;23.44;38.59;100757.66;6233691;23;20525;-65
2023/05/31 20:30:59;;;;;;;9.82;2.47;;;;;;;23.38;38.63;100765.84;6232469;23;20230;-64
2023/05/31 20:33:27;;;;;;;7.82;2.38;;;;;;;23.32;38.76;100753.22;6231685;23;20183;-64
2023/05/31 20:35:55;;;;;;;5.35;2.20;;;;;;;23.27;38.88;100760.13;6231380;23;20656;-64
2023/05/31 20:38:24;;;;;;;12.30;2.42;;;;;;;23.24;39.19;100760.56;6232127;23;20265;-65
2023/05/31 20:40:52;;;;;;;5.05;2.10;;;;;;;23.19;39.29;100754.19;6234949;23;20237;-65
2023/05/31 20:43:20;;;;;;;5.50;2.30;;;;;;;23.13;39.39;100752.38;6233583;23;20179;-65
2023/05/31 20:45:48;;;;;;;6.40;2.00;;;;;;;23.13;39.60;100755.09;6233110;23;20294;-75
2023/05/31 20:48:19;;;;;;;6.15;2.45;;;;;;;23.06;39.65;100754.31;6235286;23;20604;-73
2023/05/31 20:50:46;;;;;;;4.78;2.03;;;;;;;22.98;39.71;100750.00;6235344;23;20207;-73
2023/05/31 20:53:15;;;;;;;6.65;1.85;;;;;;;22.95;39.57;100749.66;6236112;23;20188;-74
2023/05/31 20:55:44;;;;;;;5.55;2.40;;;;;;;22.88;40.03;100758.63;6236241;23;20239;-74
2023/05/31 20:58:12;;;;;;;5.10;2.45;;;;;;;22.81;40.00;100757.88;6236625;23;20186;-73
2023/05/31 21:00:40;;;;;;;7.10;2.15;;;;;;;22.78;40.12;100755.59;6234794;23;20184;-74
2023/05/31 21:03:08;;;;;;;5.78;2.22;;;;;;;22.74;40.24;100759.81;6236834;23;20184;-73
2023/05/31 21:05:36;;;;;;;5.20;2.08;;;;;;;22.70;40.22;100755.00;6238635;23;20709;-74
2023/05/31 21:08:04;;;;;;;8.02;2.78;;;;;;;22.68;40.29;100757.97;6238514;23;20593;-74
2023/05/31 21:10:31;;;;;;;5.78;2.33;;;;;;;22.66;40.40;100754.66;6237835;23;20219;-74
2023/05/31 21:13:01;;;;;;;3.58;2.28;;;;;;;22.64;40.51;100745.09;6237712;23;20183;-73
2023/05/31 21:15:35;;;;;;;4.20;2.33;;;;;;;22.60;40.50;100755.53;6239014;23;20654;-74
2023/05/31 21:18:14;;;;;;;5.60;2.20;;;;;;;22.58;40.45;100756.78;6237578;23;20498;-74
2023/05/31 21:20:44;;;;;;;5.47;2.13;;;;;;;22.57;40.48;100758.66;6237170;23;20167;-74
2023/05/31 21:23:13;;;;;;;10.40;2.40;;;;;;;22.56;40.70;100765.13;6237462;23;20486;-73
2023/05/31 21:25:45;;;;;;;3.27;2.00;;;;;;;22.56;40.56;100767.81;6234720;23;20183;-73
2023/05/31 21:28:16;;;;;;;7.40;1.80;;;;;;;22.50;40.44;100756.00;6236407;23;20279;-75
2023/05/31 21:30:44;;;;;;;4.17;1.90;;;;;;;22.46;40.46;100764.75;6235501;23;20934;-74
2023/05/31 21:33:12;;;;;;;5.07;1.85;;;;;;;22.43;40.45;100768.72;6236634;23;20183;-77
2023/05/31 21:35:41;;;;;;;8.50;2.47;;;;;;;22.42;40.81;100767.09;6235469;23;20203;-74
2023/05/31 21:38:09;;;;;;;6.53;2.13;;;;;;;22.38;40.50;100768.56;6233566;23;20183;-73
2023/05/31 21:40:37;;;;;;;5.05;2.10;;;;;;;22.37;40.67;100774.19;6236677;23;20961;-73
2023/05/31 21:43:05;;;;;;;7.30;2.37;;;;;;;22.36;40.84;100775.22;6236364;23;20187;-74
2023/05/31 21:45:34;;;;;;;8.93;2.33;;;;;;;22.34;40.68;100774.63;6236004;23;20187;-74
2023/05/31 21:48:02;;;;;;;5.93;2.20;;;;;;;22.32;40.82;100782.13;6234571;23;20904;-74
2023/05/31 21:50:30;;;;;;;4.63;2.13;;;;;;;22.31;40.67;100781.28;6234270;23;20182;-74
2023/05/31 21:52:58;;;;;;;6.90;2.60;;;;;;;22.29;40.95;100785.25;6233282;23;20180;-74
2023/05/31 21:55:25;;;;;;;5.80;2.87;;;;;;;22.27;40.69;100784.63;6234468;23;20187;-74
2023/05/31 21:57:53;;;;;;;6.63;2.53;;;;;;;22.24;40.87;100790.47;6235156;23;20287;-75
2023/05/31 22:00:21;;;;;;;5.87;2.00;;;;;;;22.22;40.92;100779.06;6236088;23;20237;-74
2023/05/31 22:02:51;;;;;;;88.87;6.00;;;;;;;22.16;40.95;100786.16;6234802;23;20226;-74
2023/05/31 22:05:18;;;;;;;4.93;2.20;;;;;;;22.13;41.05;100786.59;6234394;23;20257;-73
2023/05/31 22:07:46;;;;;;;4.97;1.80;;;;;;;22.08;41.11;100795.31;6234177;23;20183;-72
2023/05/31 22:10:14;;;;;;;6.53;2.33;;;;;;;22.06;41.01;100796.59;6234508;23;20179;-75
2023/05/31 22:12:42;;;;;;;7.50;2.20;;;;;;;22.03;41.11;100791.63;6235405;23;20711;-74
2023/05/31 22:15:12;;;;;;;3.93;2.37;;;;;;;22.04;41.08;100787.88;6234380;23;20616;-73
2023/05/31 22:17:39;;;;;;;13.53;2.00;;;;;;;22.01;41.20;100788.31;6233207;23;20199;-74
2023/05/31 22:20:11;;;;;;;4.67;1.83;;;;;;;22.00;41.25;100792.88;6234117;23;20545;-73
2023/05/31 22:22:39;;;;;;;6.57;2.30;;;;;;;21.96;40.95;100791.63;6208816;23;20250;-74
2023/05/31 22:25:08;;;;;;;7.93;2.40;;;;;;;21.93;41.35;100791.22;6205994;23;20263;-75
2023/05/31 22:27:42;;;;;;;5.00;2.10;;;;;;;21.91;41.36;100791.44;6205605;23;20251;-75
2023/05/31 22:30:11;;;;;;;8.53;2.10;;;;;;;21.90;41.46;100787.06;6204235;23;20184;-72
2023/05/31 22:32:39;;;;;;;6.40;2.30;;;;;;;21.90;41.20;100786.28;6203430;23;20211;-73
2023/05/31 22:35:10;;;;;;;4.97;2.10;;;;;;;21.88;41.54;100786.47;6205054;23;20233;-74
2023/05/31 22:37:38;;;;;;;5.13;1.87;;;;;;;21.86;41.54;100780.47;6204181;23;20208;-74
2023/05/31 22:40:07;;;;;;;5.20;1.87;;;;;;;21.87;41.45;100786.69;6206635;23;20258;-73
2023/05/31 22:42:35;;;;;;;4.07;2.10;;;;;;;21.84;41.27;100787.94;6205728;23;20198;-75
2023/05/31 22:45:03;;;;;;;6.60;2.47;;;;;;;21.83;41.62;100785.44;6205330;23;20272;-73
2023/05/31 22:47:31;;;;;;;8.33;3.03;;;;;;;21.82;41.31;100787.31;6206019;23;20195;-75
2023/05/31 22:49:59;;;;;;;12.57;2.43;;;;;;;21.78;41.48;100783.41;6205606;23;20242;-75
2023/05/31 22:52:37;;;;;;;10.00;2.43;;;;;;;21.72;41.71;100781.56;6203145;23;20184;-74
2023/05/31 22:55:05;;;;;;;10.10;2.27;;;;;;;21.67;42.08;100787.59;6203817;23;21031;-74
2023/05/31 22:57:33;;;;;;;5.60;2.30;;;;;;;21.68;41.99;100786.53;6202498;23;20216;-74
2023/05/31 23:00:01;;;;;;;5.43;2.00;;;;;;;21.66;41.69;100793.19;6200672;23;20234;-75
2023/05/31 23:02:29;;;;;;;4.20;2.20;;;;;;;21.62;42.20;100794.66;6202674;23;20629;-74
2023/05/31 23:04:57;;;;;;;7.00;2.60;;;;;;;21.59;42.13;100789.69;6204029;23;20282;-75
2023/05/31 23:07:29;;;;;;;4.73;2.00;;;;;;;21.59;41.89;100785.13;6203213;23;20187;-73
2023/05/31 23:10:01;;;;;;;5.53;2.17;;;;;;;21.59;42.10;100776.19;6203099;23;20184;-74
2023/05/31 23:12:30;;;;;;;7.00;2.17;;;;;;;21.56;42.15;100785.53;6202386;23;20247;-74
2023/05/31 23:15:04;;;;;;;6.30;2.37;;;;;;;21.52;42.19;100786.19;6202795;23;20180;-74
2023/05/31 23:17:34;;;;;;;6.50;2.63;;;;;;;21.48;42.03;100788.47;6203009;23;20204;-73
2023/05/31 23:20:07;;;;;;;6.33;2.77;;;;;;;21.45;42.26;100785.38;6204454;23;20211;-74
2023/05/31 23:22:35;;;;;;;6.30;2.30;;;;;;;21.44;42.10;100786.41;6228618;23;20211;-73
2023/05/31 23:25:05;;;;;;;8.27;2.40;;;;;;;21.44;42.24;100786.41;6233495;23;20266;-74
2023/05/31 23:27:35;;;;;;;5.83;2.17;;;;;;;21.42;42.32;100783.09;6233612;23;20200;-74
2023/05/31 23:30:03;;;;;;;3.47;1.80;;;;;;;21.42;42.35;100783.09;6231430;23;20632;-76
2023/05/31 23:32:31;;;;;;;7.47;2.40;;;;;;;21.42;42.43;100783.09;6233248;23;20238;-75
2023/05/31 23:35:00;;;;;;;4.50;2.00;;;;;;;21.38;42.24;100778.13;6233117;23;20210;-75
2023/05/31 23:37:28;;;;;;;6.40;2.27;;;;;;;21.30;42.54;100778.34;6231310;23;20203;-74
2023/05/31 23:39:55;;;;;;;7.30;2.20;;;;;;;21.25;42.59;100778.16;6232177;23;20262;-74
2023/05/31 23:42:24;;;;;;;6.37;2.37;;;;;;;21.25;42.40;100783.53;6232528;23;20211;-74
2023/05/31 23:44:52;;;;;;;5.57;2.63;;;;;;;21.24;42.50;100781.88;6233632;23;20186;-75
2023/05/31 23:47:20;;;;;;;7.00;2.07;;;;;;;21.22;42.65;100783.13;6233439;23;20194;-73
2023/05/31 23:49:48;;;;;;;6.90;2.10;;;;;;;21.19;42.74;100783.56;6233638;23;20183;-73
2023/05/31 23:52:16;;;;;;;7.13;2.30;;;;;;;21.16;42.68;100776.69;6234285;23;20286;-73
2023/05/31 23:54:44;;;;;;;8.37;2.30;;;;;;;21.14;42.77;100781.44;6234460;23;20290;-73
2023/05/31 23:57:12;;;;;;;5.03;2.00;;;;;;;21.13;42.90;100782.50;6232372;23;20290;-74
2023/05/31 23:59:42;;;;;;;6.77;2.30;;;;;;;21.16;42.68;100781.25;6233945;23;20183;-75
